Provisional Data: Moose Creek near Plymptonville, PA


Please select a monitoring station.
Please select start date.
Please select start date.

Toggle Unit: C/F Toggle Unit: C/F
Sample Time Temperature (C) Temperature (F) Specific Conductivity (mS/cm) pH   Turbidity (NTU+) DO (mg/L)
3/7/2021 8:30:00 AM 1.67 35.006 0.14 6.36 3.65 13.46
3/7/2021 8:45:00 AM 1.74 35.132 0.14 6.36 3.61 13.44
3/7/2021 9:00:00 AM 1.82 35.276 0.139 6.36 3.65 13.41
3/7/2021 2:00:00 PM -99999.99 -179968 -99999.99 -99999.99 -99999.99 -99999.99
3/7/2021 2:15:00 PM 3.65 38.57 0.137 6.39 3.62 12.72
3/7/2021 2:30:00 PM 3.65 38.57 0.137 6.39 3.64 12.72
3/7/2021 2:45:00 PM 3.62 38.516 0.137 6.39 3.56 12.73
3/7/2021 3:00:00 PM 3.61 38.498 0.138 6.39 3.74 12.74
3/7/2021 3:15:00 PM 3.57 38.426 0.138 6.4 3.6 12.75
3/7/2021 3:30:00 PM 3.52 38.336 0.139 6.4 3.68 12.77
3/7/2021 3:45:00 PM 3.49 38.282 0.139 6.4 3.62 12.78
3/7/2021 4:00:00 PM 3.44 38.192 0.139 6.41 3.53 12.79
3/7/2021 4:15:00 PM 3.38 38.084 0.14 6.41 3.83 12.82
3/7/2021 4:30:00 PM 3.31 37.958 0.14 6.41 3.67 12.84
3/7/2021 4:45:00 PM 3.26 37.868 0.14 6.41 3.7 12.86
3/7/2021 5:00:00 PM 3.21 37.778 0.14 6.41 3.66 12.88
3/7/2021 5:15:00 PM 3.17 37.706 0.14 6.41 3.76 12.9
3/7/2021 5:30:00 PM 3.15 37.67 0.14 6.41 3.73 12.91
3/7/2021 5:45:00 PM 3.12 37.616 0.14 6.41 3.58 12.92
3/7/2021 6:00:00 PM 3.08 37.544 0.14 6.41 3.6 12.93
3/7/2021 6:15:00 PM 3.05 37.49 0.14 6.41 3.73 12.94
3/7/2021 6:30:00 PM 3.02 37.436 0.14 6.41 3.61 12.95
3/7/2021 6:45:00 PM 3 37.4 0.14 6.41 3.53 12.97
3/7/2021 7:00:00 PM 2.97 37.346 0.14 6.4 3.64 12.97
3/8/2021 12:15:00 PM 3.1 37.58 0.137 6.38 3.57 12.96
3/8/2021 12:30:00 PM 3.14 37.652 0.137 6.39 3.57 12.95
3/8/2021 12:45:00 PM 3.23 37.814 0.137 6.39 3.56 12.93
3/8/2021 1:00:00 PM 3.33 37.994 0.137 6.39 3.66 12.89
3/8/2021 1:30:00 PM 3.42 38.156 0.137 6.39 3.56 12.84
3/8/2021 1:45:00 PM 3.45 38.21 0.137 6.39 3.55 12.83
3/8/2021 2:00:00 PM 3.45 38.21 0.137 6.39 3.68 12.82
3/8/2021 2:15:00 PM 3.46 38.228 0.138 6.39 3.58 12.82
3/8/2021 2:30:00 PM 3.51 38.318 0.138 6.39 3.59 12.81
3/8/2021 2:45:00 PM 3.57 38.426 0.138 6.4 3.57 12.78
3/8/2021 3:00:00 PM 3.64 38.552 0.138 6.4 3.59 12.76
3/8/2021 3:30:00 PM 3.77 38.786 0.139 6.41 3.55 12.71
3/8/2021 3:45:00 PM 3.77 38.786 0.139 6.41 3.6 12.71
3/8/2021 4:00:00 PM 3.78 38.804 0.139 6.41 3.66 12.7
3/8/2021 4:15:00 PM 3.79 38.822 0.14 6.42 3.64 12.7
3/8/2021 4:30:00 PM 3.77 38.786 0.14 6.42 3.66 12.7
3/8/2021 4:45:00 PM 3.75 38.75 0.14 6.42 4.03 12.7
3/8/2021 5:00:00 PM 3.73 38.714 0.141 6.42 3.75 12.71
3/8/2021 5:15:00 PM 3.7 38.66 0.141 6.44 3.64 12.72
3/8/2021 5:30:00 PM 3.68 38.624 0.142 6.43 3.64 12.72
3/8/2021 5:45:00 PM 3.66 38.588 0.142 6.43 3.67 12.73
3/8/2021 6:00:00 PM 3.64 38.552 0.142 6.43 3.67 12.74
3/8/2021 6:15:00 PM 3.61 38.498 0.142 6.43 3.64 12.74
3/8/2021 6:30:00 PM 3.58 38.444 0.142 6.43 3.73 12.75
3/8/2021 6:45:00 PM 3.55 38.39 0.142 6.43 3.79 12.76
3/8/2021 7:00:00 PM 3.52 38.336 0.142 6.43 3.61 12.78
3/9/2021 8:45:00 AM 3.89 39.002 0.146 6.42 3.59 12.67
3/9/2021 9:00:00 AM 3.95 39.11 0.146 6.42 3.81 12.65
3/9/2021 9:30:00 AM 4.11 39.398 0.146 6.43 3.62 12.55
3/9/2021 9:45:00 AM 4.22 39.596 0.146 6.43 3.59 12.56
3/9/2021 10:00:00 AM 4.32 39.776 0.146 6.42 3.64 12.52
3/9/2021 10:15:00 AM 4.43 39.974 0.146 6.43 3.55 12.49
3/9/2021 10:30:00 AM 4.53 40.154 0.146 6.43 3.58 12.45
3/9/2021 10:45:00 AM 4.66 40.388 0.146 6.44 3.65 12.41
3/9/2021 11:00:00 AM 4.78 40.604 0.147 6.45 3.62 12.36
3/9/2021 1:30:00 PM -99999.99 -179968 -99999.99 -99999.99 -99999.99 -99999.99
3/9/2021 1:45:00 PM 5.64 42.152 0.184 6.72 4.99 12.09
3/9/2021 2:00:00 PM 5.65 42.17 0.186 6.73 5.37 12.08
3/9/2021 2:15:00 PM 5.67 42.206 0.188 6.74 5.1 12.08
3/9/2021 2:30:00 PM 5.67 42.206 0.19 6.75 5.11 12.08
3/9/2021 2:45:00 PM 5.64 42.152 0.192 6.75 5.18 12.08
3/9/2021 3:00:00 PM 5.6 42.08 0.195 6.76 5.11 12.09
3/10/2021 8:30:00 AM 3.69 38.642 0.198 6.58 4.05 12.76
3/10/2021 8:45:00 AM 3.75 38.75 0.198 6.58 3.86 12.75
3/10/2021 9:00:00 AM 3.83 38.894 0.197 6.58 3.91 12.72
3/10/2021 12:30:00 PM 5.67 42.206 0.201 6.65 4.26 12.08
3/10/2021 12:45:00 PM 5.77 42.386 0.203 6.67 4.33 12.05
3/10/2021 1:00:00 PM 5.85 42.53 0.205 6.69 4.47 12.02
3/10/2021 1:15:00 PM 5.92 42.656 0.208 6.7 4.52 11.99
3/10/2021 1:30:00 PM 5.98 42.764 0.21 6.72 5.08 11.98
3/10/2021 1:45:00 PM 6.01 42.818 0.212 6.73 5.24 11.96
3/10/2021 2:00:00 PM 6.02 42.836 0.213 6.74 5.35 11.95
3/10/2021 2:15:00 PM 6.02 42.836 0.215 6.75 5.68 11.95
3/10/2021 2:30:00 PM 5.99 42.782 0.215 6.76 5.82 11.96
3/10/2021 2:45:00 PM 5.94 42.692 0.216 6.76 6.04 11.97
3/10/2021 3:00:00 PM 5.9 42.62 0.215 6.76 6.74 11.99
3/10/2021 3:15:00 PM 5.84 42.512 0.215 6.77 6.34 12
3/10/2021 3:30:00 PM 5.77 42.386 0.214 6.76 6.74 12.02
3/10/2021 3:45:00 PM 5.69 42.242 0.212 6.76 6.68 12.04
3/10/2021 4:00:00 PM 5.63 42.134 0.211 6.75 6.93 12.06
3/10/2021 4:15:00 PM 5.57 42.026 0.209 6.75 6.8 12.08
3/10/2021 4:30:00 PM 5.52 41.936 0.207 6.74 7.02 12.1
3/10/2021 4:45:00 PM 5.47 41.846 0.204 6.74 7.47 12.11
3/10/2021 5:00:00 PM 5.42 41.756 0.202 6.73 7.19 12.13
3/10/2021 5:15:00 PM 5.37 41.666 0.199 6.72 7.29 12.14
3/10/2021 5:30:00 PM 5.31 41.558 0.197 6.71 6.7 12.16
3/10/2021 5:45:00 PM 5.25 41.45 0.194 6.7 6.75 12.17
3/10/2021 6:00:00 PM 5.19 41.342 0.192 6.69 6.63 12.19
3/10/2021 6:15:00 PM 5.13 41.234 0.19 6.68 6.5 12.21
3/10/2021 6:30:00 PM 5.07 41.126 0.189 6.67 6.45 12.24
3/10/2021 6:45:00 PM 5.02 41.036 0.187 6.66 6.25 12.26
3/10/2021 7:00:00 PM 4.97 40.946 0.186 6.65 6.45 12.28
3/10/2021 7:15:00 PM 4.92 40.856 0.184 6.65 6.35 12.29
3/10/2021 7:30:00 PM 4.87 40.766 0.183 6.64 5.99 12.31
3/10/2021 7:45:00 PM 4.83 40.694 0.182 6.63 5.77 12.32
3/10/2021 8:00:00 PM 4.79 40.622 0.181 6.62 6.05 12.33
3/10/2021 8:15:00 PM 4.75 40.55 0.18 6.61 5.82 12.34
3/10/2021 8:30:00 PM 4.72 40.496 0.179 6.6 5.76 12.35
3/10/2021 8:45:00 PM 4.69 40.442 0.178 6.6 5.72 12.36
3/10/2021 9:00:00 PM 4.66 40.388 0.177 6.59 5.55 12.37
3/10/2021 9:15:00 PM 4.64 40.352 0.176 6.58 5.49 12.38
3/10/2021 9:30:00 PM 4.61 40.298 0.175 6.58 5.37 12.39
3/10/2021 9:45:00 PM 4.58 40.244 0.174 6.57 5.38 12.4
3/10/2021 10:00:00 PM 4.56 40.208 0.173 6.56 5.25 12.4
3/10/2021 10:15:00 PM 4.54 40.172 0.173 6.56 5.3 12.41
3/10/2021 10:30:00 PM 4.53 40.154 0.172 6.56 5.26 12.41
3/10/2021 10:45:00 PM 4.52 40.136 0.172 6.55 5.22 12.42
3/10/2021 11:00:00 PM 4.51 40.118 0.172 6.55 5.36 12.42
3/10/2021 11:15:00 PM 4.51 40.118 0.172 6.54 5.11 12.42
3/10/2021 11:30:00 PM 4.5 40.1 0.173 6.54 4.94 12.42
3/10/2021 11:45:00 PM 4.5 40.1 0.173 6.54 5.02 12.42
3/11/2021 12:00:00 AM 4.49 40.082 0.173 6.53 4.92 12.43
3/11/2021 12:15:00 AM 4.49 40.082 0.173 6.53 4.97 12.42
3/11/2021 12:30:00 AM 4.49 40.082 0.173 6.52 4.94 12.43
3/11/2021 12:45:00 AM 4.49 40.082 0.173 6.52 4.99 12.43
3/11/2021 1:00:00 AM 4.48 40.064 0.175 6.52 4.82 12.42
3/11/2021 1:15:00 AM 4.48 40.064 0.174 6.52 4.92 12.42
3/11/2021 1:30:00 AM 4.48 40.064 0.174 6.51 4.85 12.42
3/11/2021 1:45:00 AM 4.48 40.064 0.174 6.51 4.85 12.42
3/11/2021 2:00:00 AM 4.47 40.046 0.174 6.51 4.82 12.42
3/11/2021 2:15:00 AM 4.47 40.046 0.174 6.51 5.06 12.43
3/11/2021 2:30:00 AM 4.46 40.028 0.173 6.51 4.75 12.43
3/11/2021 2:45:00 AM 4.46 40.028 0.173 6.5 4.81 12.42
3/11/2021 3:00:00 AM 4.45 40.01 0.173 6.5 4.72 12.43
3/11/2021 3:15:00 AM 4.44 39.992 0.172 6.5 4.73 12.43
3/11/2021 3:30:00 AM 4.44 39.992 0.172 6.5 4.78 12.43
3/11/2021 3:45:00 AM 4.44 39.992 0.172 6.5 4.7 12.43
3/11/2021 4:00:00 AM 4.44 39.992 0.172 6.5 4.74 12.43
3/11/2021 4:15:00 AM 4.45 40.01 0.171 6.5 4.75 12.43
3/11/2021 4:30:00 AM 4.45 40.01 0.171 6.5 4.78 12.43
3/11/2021 4:45:00 AM 4.44 39.992 0.17 6.5 4.69 12.43
3/11/2021 5:00:00 AM 4.43 39.974 0.17 6.5 4.73 12.43
3/11/2021 5:15:00 AM 4.42 39.956 0.169 6.5 4.68 12.44
3/11/2021 5:30:00 AM 4.41 39.938 0.169 6.5 4.75 12.44
3/11/2021 5:45:00 AM 4.41 39.938 0.169 6.49 4.71 12.44
3/11/2021 6:00:00 AM 4.41 39.938 0.169 6.5 4.64 12.44
3/11/2021 6:15:00 AM 4.4 39.92 0.168 6.49 4.59 12.44
3/11/2021 6:30:00 AM 4.4 39.92 0.168 6.49 4.74 12.44
3/11/2021 6:45:00 AM 4.39 39.902 0.168 6.49 4.69 12.44
3/11/2021 7:00:00 AM 4.4 39.92 0.167 6.49 4.71 12.45
3/11/2021 7:15:00 AM 4.4 39.92 0.166 6.49 4.63 12.45
3/11/2021 7:30:00 AM 4.43 39.974 0.166 6.49 4.57 12.44
3/11/2021 7:45:00 AM 4.47 40.046 0.165 6.49 4.64 12.43
3/11/2021 8:00:00 AM 4.52 40.136 0.165 6.49 4.52 12.41
3/11/2021 8:15:00 AM 4.57 40.226 0.164 6.49 4.58 12.4
3/11/2021 8:30:00 AM 4.64 40.352 0.164 6.49 4.58 12.37
3/11/2021 8:45:00 AM 4.7 40.46 0.163 6.49 4.63 12.36
3/11/2021 9:00:00 AM 4.74 40.532 0.163 6.49 4.52 12.34
3/11/2021 9:15:00 AM 4.77 40.586 0.161 6.49 4.46 12.33
3/11/2021 9:30:00 AM 4.8 40.64 0.161 6.49 4.54 12.32
3/11/2021 9:45:00 AM 4.81 40.658 0.16 6.5 4.79 12.31
3/11/2021 10:00:00 AM 4.86 40.748 0.16 6.5 4.98 12.3
3/11/2021 10:15:00 AM 4.96 40.928 0.16 6.51 5.09 12.27
3/11/2021 10:30:00 AM 5.06 41.108 0.16 6.51 5.12 12.23
3/11/2021 10:45:00 AM 5.13 41.234 0.16 6.52 5.17 12.2
3/11/2021 11:00:00 AM 5.18 41.324 0.161 6.53 5.31 12.19
3/11/2021 11:15:00 AM 5.23 41.414 0.161 6.54 5.48 12.17
3/11/2021 11:30:00 AM 5.27 41.486 0.16 6.55 5.58 12.16
3/11/2021 11:45:00 AM 5.29 41.522 0.16 6.56 5.99 12.16
3/11/2021 12:00:00 PM 5.29 41.522 0.16 6.56 6.21 12.16
3/11/2021 12:15:00 PM 5.36 41.648 0.159 6.56 6.96 12.14
3/11/2021 12:30:00 PM 5.39 41.702 0.158 6.56 7.41 12.12
3/11/2021 12:45:00 PM 5.38 41.684 0.157 6.57 7.4 12.12
3/11/2021 1:00:00 PM 5.38 41.684 0.156 6.58 7.93 12.13
3/11/2021 1:15:00 PM 5.38 41.684 0.155 6.61 7.95 12.12
3/11/2021 1:30:00 PM 5.39 41.702 0.154 6.58 8.56 12.12
3/11/2021 1:45:00 PM 5.39 41.702 0.152 6.58 9.07 12.12
3/11/2021 2:00:00 PM 5.38 41.684 0.15 6.57 9.38 12.12
3/11/2021 2:15:00 PM 5.34 41.612 0.149 6.56 8.72 12.12
3/11/2021 2:30:00 PM 5.3 41.54 0.147 6.55 8.66 12.14
3/11/2021 2:45:00 PM 5.25 41.45 0.146 6.55 9.55 12.15
3/11/2021 3:00:00 PM 5.18 41.324 0.144 6.54 9.22 12.17
3/12/2021 1:30:00 PM 5.45 41.81 0.079 6.16 8.54 12.12
3/12/2021 1:45:00 PM 5.48 41.864 0.078 6.15 8.46 12.1
3/12/2021 2:00:00 PM 5.5 41.9 0.078 6.15 10.49 12.09
3/12/2021 2:15:00 PM 5.52 41.936 0.077 6.15 9.59 12.09
3/12/2021 2:30:00 PM 5.53 41.954 0.077 6.15 11.33 12.08
3/12/2021 2:45:00 PM 5.52 41.936 0.077 6.14 12.2 12.08
3/12/2021 3:00:00 PM 5.51 41.918 0.076 6.14 10.34 12.08
3/12/2021 3:30:00 PM 5.46 41.828 0.076 6.13 16.19 12.1
3/12/2021 3:45:00 PM 5.43 41.774 0.076 6.12 36.21 12.12
3/12/2021 4:00:00 PM 5.39 41.702 0.075 6.12 32.81 12.13
3/12/2021 4:15:00 PM 5.34 41.612 0.075 6.11 342.69 12.14
3/12/2021 4:30:00 PM 5.29 41.522 0.075 6.11 17.63 12.16
3/12/2021 4:45:00 PM 5.25 41.45 0.075 6.06 14.32 12.16
3/12/2021 5:00:00 PM 5.21 41.378 0.074 6.08 22.13 12.18
3/12/2021 5:45:00 PM -99999.99 -179968 -99999.99 -99999.99 -99999.99 -99999.99
3/13/2021 12:15:00 PM 5.1 41.18 0.066 6 4.38 12.28
3/13/2021 12:30:00 PM 5.18 41.324 0.066 5.98 4.52 12.26
3/13/2021 12:45:00 PM 5.25 41.45 0.066 5.97 4.28 12.22
3/13/2021 1:00:00 PM 5.31 41.558 0.066 5.97 4.25 12.21
3/13/2021 2:30:00 PM 5.52 41.936 0.067 5.98 4.38 12.11
3/13/2021 2:45:00 PM 5.54 41.972 0.066 5.97 4.16 12.11
3/13/2021 3:00:00 PM 5.55 41.99 0.067 6 4.33 12.1
3/13/2021 3:30:00 PM 5.52 41.936 0.067 5.98 4.12 12.1
3/13/2021 3:45:00 PM 5.49 41.882 0.067 5.98 4.27 12.12
3/13/2021 4:00:00 PM 5.47 41.846 0.066 5.99 4.06 12.11
3/13/2021 4:15:00 PM 5.44 41.792 0.067 5.99 4.17 12.13
3/13/2021 4:30:00 PM 5.41 41.738 0.067 5.98 4.08 12.12
3/13/2021 4:45:00 PM 5.37 41.666 0.067 5.99 4.03 12.15
3/13/2021 5:00:00 PM 5.34 41.612 0.067 5.99 4.05 12.15
3/13/2021 5:15:00 PM 5.31 41.558 0.067 5.97 4.19 12.16
3/13/2021 5:30:00 PM 5.27 41.486 0.067 5.98 3.93 12.17
3/13/2021 5:45:00 PM 5.25 41.45 0.067 5.97 4.02 12.18
3/13/2021 6:00:00 PM 5.22 41.396 0.067 5.97 4.12 12.18
3/13/2021 6:15:00 PM 5.19 41.342 0.067 5.96 4.08 12.19
3/13/2021 6:30:00 PM 5.16 41.288 0.067 5.96 3.89 12.2
3/13/2021 6:45:00 PM 5.13 41.234 0.067 5.96 3.93 12.22
3/13/2021 7:00:00 PM 5.11 41.198 0.067 5.96 3.99 12.23
3/14/2021 8:45:00 AM 4.65 40.37 0.068 5.98 3.43 12.34
3/14/2021 9:00:00 AM 4.71 40.478 0.068 5.98 3.47 12.33
3/14/2021 9:15:00 AM 4.77 40.586 0.068 5.98 3.65 12.31
3/14/2021 9:30:00 AM 4.86 40.748 0.069 5.98 3.47 12.27
3/14/2021 9:45:00 AM 4.94 40.892 0.068 5.99 3.55 12.25
3/14/2021 10:00:00 AM 5.04 41.072 0.069 5.98 3.5 12.21
3/14/2021 10:15:00 AM 5.13 41.234 0.069 5.98 3.41 12.19
3/14/2021 10:30:00 AM 5.23 41.414 0.069 5.99 3.49 12.16
3/14/2021 10:45:00 AM 5.31 41.558 0.069 5.99 3.53 12.13
3/14/2021 11:00:00 AM 5.4 41.72 0.069 5.99 3.55 12.1
3/16/2021 11:00:00 AM 4.31 39.758 0.075 6.08 3.03 12.42
3/16/2021 11:15:00 AM 4.33 39.794 0.075 6.08 3.03 12.41
3/16/2021 11:30:00 AM 4.35 39.83 0.075 6.09 3.07 12.4
3/17/2021 9:30:00 AM 4.99 40.982 0.078 6.14 3.12 12.21
3/17/2021 9:45:00 AM 5.04 41.072 0.078 6.14 3.14 12.19
3/17/2021 10:00:00 AM 5.1 41.18 0.078 6.14 3.19 12.17
3/17/2021 10:15:00 AM 5.16 41.288 0.078 6.14 3.16 12.14
3/17/2021 10:30:00 AM 5.24 41.432 0.078 6.14 3.26 12.13
3/17/2021 10:45:00 AM 5.33 41.594 0.078 6.14 3.18 12.09
3/17/2021 11:00:00 AM 5.42 41.756 0.078 6.14 3.2 12.06
3/17/2021 4:45:00 PM 6.44 43.592 0.077 6.17 3.44 11.72
3/17/2021 5:00:00 PM 6.4 43.52 0.077 6.17 3.45 11.73
3/17/2021 5:15:00 PM 6.34 43.412 0.077 6.17 3.49 11.73
3/17/2021 5:30:00 PM 6.29 43.322 0.077 6.17 3.59 11.76
3/17/2021 5:45:00 PM 6.24 43.232 0.077 6.17 3.51 11.76
3/17/2021 6:00:00 PM 6.18 43.124 0.077 6.17 3.55 11.79
3/17/2021 6:15:00 PM 6.11 42.998 0.077 6.16 3.48 11.8
3/17/2021 6:30:00 PM 6.05 42.89 0.077 6.16 3.6 11.82
3/17/2021 6:45:00 PM 5.99 42.782 0.077 6.16 3.45 11.85
3/17/2021 7:00:00 PM 5.94 42.692 0.077 6.17 3.51 11.86
3/18/2021 11:00:00 AM 5.33 41.594 0.081 6.3 6.12 12
3/18/2021 11:30:00 AM 5.34 41.612 0.082 6.33 6 11.99
3/18/2021 11:45:00 AM 5.34 41.612 0.082 6.32 5.86 12
3/18/2021 12:00:00 PM 5.33 41.594 0.082 6.31 5.94 12
3/18/2021 12:15:00 PM 5.34 41.612 0.082 6.32 6.4 12
3/18/2021 12:30:00 PM 5.36 41.648 0.083 6.32 6.15 11.98
3/18/2021 12:45:00 PM 5.37 41.666 0.083 6.32 6.1 11.99
3/18/2021 1:00:00 PM 5.35 41.63 0.084 6.32 6.04 11.99
3/18/2021 1:15:00 PM 5.32 41.576 0.084 6.32 6.24 12
3/18/2021 1:30:00 PM 5.31 41.558 0.084 6.32 6.73 12
3/18/2021 1:45:00 PM 5.29 41.522 0.084 6.32 6.37 12.01
3/18/2021 2:00:00 PM 5.28 41.504 0.084 6.32 6.26 12
3/18/2021 2:15:00 PM 5.26 41.468 0.084 6.32 6.28 12.02
3/18/2021 2:30:00 PM 5.24 41.432 0.084 6.32 6.38 12.03
3/18/2021 2:45:00 PM 5.22 41.396 0.084 6.31 6.38 12.02
3/18/2021 3:00:00 PM 5.21 41.378 0.084 6.32 6.56 12.03
3/19/2021 3:30:00 PM 5.29 41.522 0.088 6.24 3.38 12.21
3/19/2021 3:45:00 PM 5.26 41.468 0.088 6.23 3.44 12.22
3/19/2021 4:00:00 PM 5.23 41.414 0.088 6.22 3.42 12.22
3/19/2021 4:15:00 PM 5.2 41.36 0.088 6.22 3.39 12.24
3/19/2021 4:30:00 PM 5.17 41.306 0.088 6.22 3.37 12.25
3/19/2021 4:45:00 PM 5.12 41.216 0.087 6.21 3.37 12.27
3/19/2021 5:00:00 PM 5.09 41.162 0.087 6.21 3.4 12.27
3/19/2021 5:15:00 PM -99999.99 -179968 -99999.99 -99999.99 -99999.99 -99999.99
3/19/2021 5:30:00 PM -99999.99 -179968 -99999.99 -99999.99 -99999.99 -99999.99
3/21/2021 9:30:00 AM 4.95 40.91 0.076 6.18 3.15 12.4
3/21/2021 9:45:00 AM 5.09 41.162 0.076 6.18 3.17 12.36
3/21/2021 10:00:00 AM 5.22 41.396 0.076 6.18 3.16 12.31
3/21/2021 10:15:00 AM 5.37 41.666 0.076 6.19 3.17 12.27
3/21/2021 10:30:00 AM 5.51 41.918 0.076 6.19 3.12 12.21
3/22/2021 9:30:00 AM 5.3 41.54 0.075 6.16 3.52 12.22
3/22/2021 9:45:00 AM 5.44 41.792 0.075 6.16 3.5 12.18
3/22/2021 10:00:00 AM 5.58 42.044 0.075 6.16 3.51 12.13
3/22/2021 10:15:00 AM 5.73 42.314 0.075 6.16 3.52 12.08
3/22/2021 10:30:00 AM 5.88 42.584 0.075 6.16 3.57 12.03
3/22/2021 10:45:00 AM 6.02 42.836 0.075 6.16 3.49 11.98
3/22/2021 11:00:00 AM 6.15 43.07 0.075 6.16 3.51 11.94
3/22/2021 11:15:00 AM -99999.99 -179968 -99999.99 -99999.99 -99999.99 -99999.99
3/24/2021 2:15:00 PM 7.15 44.87 0.073 6.23 4.04 11.5
3/24/2021 2:30:00 PM 7.2 44.96 0.073 6.23 4.17 11.49
3/24/2021 2:45:00 PM 7.27 45.086 0.073 6.23 4.08 11.47
3/24/2021 3:00:00 PM 7.32 45.176 0.073 6.23 4.12 11.45
3/24/2021 3:15:00 PM 7.35 45.23 0.073 6.23 4.13 11.44
3/24/2021 3:30:00 PM 7.37 45.266 0.073 6.23 4.08 11.43
3/24/2021 3:45:00 PM 7.4 45.32 0.073 6.23 3.99 11.42
3/24/2021 4:00:00 PM 7.44 45.392 0.073 6.22 4 11.41
3/24/2021 4:15:00 PM 7.48 45.464 0.073 6.23 4.04 11.4
3/24/2021 4:30:00 PM 7.5 45.5 0.073 6.22 4.04 11.39
3/24/2021 4:45:00 PM 7.5 45.5 0.072 6.23 4.05 11.39
3/24/2021 5:00:00 PM 7.49 45.482 0.072 6.22 4.05 11.39
3/24/2021 5:15:00 PM 7.47 45.446 0.072 6.22 4.12 11.4
3/24/2021 5:30:00 PM 7.45 45.41 0.072 6.22 4.04 11.39
3/24/2021 5:45:00 PM 7.43 45.374 0.072 6.22 4.11 11.4
3/24/2021 6:00:00 PM 7.4 45.32 0.072 6.22 4.09 11.41
3/24/2021 6:15:00 PM 7.37 45.266 0.072 6.22 4.04 11.42
3/24/2021 6:30:00 PM 7.34 45.212 0.072 6.22 4.04 11.42
3/24/2021 6:45:00 PM 7.32 45.176 0.072 6.21 4.12 11.43
3/24/2021 7:00:00 PM 7.29 45.122 0.072 6.21 4.1 11.44
3/25/2021 8:00:00 AM -99999.99 -179968 -99999.99 -99999.99 -99999.99 -99999.99
3/25/2021 8:15:00 AM 6.95 44.51 0.073 6.21 4.1 11.59
3/25/2021 8:30:00 AM 7 44.6 0.073 6.21 4.09 11.57
3/25/2021 8:45:00 AM 7.08 44.744 0.073 6.22 4.08 11.56
3/25/2021 9:00:00 AM 7.17 44.906 0.073 6.22 4.08 11.53
3/25/2021 9:30:00 AM 7.37 45.266 0.073 6.23 4.05 11.47
3/25/2021 9:45:00 AM 7.49 45.482 0.073 6.22 4.09 11.44
3/25/2021 10:00:00 AM 7.62 45.716 0.073 6.23 4.11 11.4
3/25/2021 10:15:00 AM 7.75 45.95 0.073 6.23 4.12 11.37
3/25/2021 10:30:00 AM 7.91 46.238 0.073 6.23 4.09 11.32
3/25/2021 10:45:00 AM 8.03 46.454 0.073 6.23 4.03 11.28
3/25/2021 11:00:00 AM 8.16 46.688 0.073 6.23 4.1 11.25
3/30/2021 9:45:00 AM 6.23 43.214 0.106 6.5 4.13 11.84
3/30/2021 10:00:00 AM 6.39 43.502 0.105 6.51 4.14 11.81
3/30/2021 10:15:00 AM 6.56 43.808 0.105 6.51 4.05 11.76
3/30/2021 10:30:00 AM 6.74 44.132 0.105 6.51 4.04 11.7
3/30/2021 10:45:00 AM 6.91 44.438 0.105 6.51 4.06 11.64
3/30/2021 11:00:00 AM 7.08 44.744 0.104 6.51 4.09 11.59
3/30/2021 11:15:00 AM -99999.99 -179968 -99999.99 -99999.99 -99999.99 -99999.99
4/2/2021 3:30:00 PM 5.8 42.44 0.104 6.5 4.54 11.97
4/2/2021 3:45:00 PM 5.75 42.35 0.104 6.5 4.52 11.99
4/2/2021 4:00:00 PM 5.69 42.242 0.104 6.5 4.55 12
4/2/2021 4:15:00 PM 5.61 42.098 0.104 6.5 4.57 12.03
4/2/2021 4:30:00 PM 5.55 41.99 0.103 6.49 4.58 12.05
4/2/2021 4:45:00 PM 5.47 41.846 0.103 6.49 4.51 12.07
4/2/2021 5:00:00 PM 5.38 41.684 0.103 6.49 4.5 12.1
4/2/2021 5:15:00 PM 5.3 41.54 0.103 6.49 4.59 12.13
4/2/2021 5:30:00 PM 5.21 41.378 0.103 6.49 4.74 12.16
4/2/2021 5:45:00 PM 5.15 41.27 0.103 6.49 4.64 12.19
4/2/2021 6:00:00 PM 5.1 41.18 0.103 6.48 4.54 12.2
4/2/2021 6:15:00 PM 5.06 41.108 0.103 6.48 4.52 12.21
4/2/2021 6:30:00 PM 5.02 41.036 0.103 6.48 4.52 12.23
4/2/2021 6:45:00 PM 4.97 40.946 0.102 6.48 4.47 12.25
4/2/2021 7:00:00 PM 4.92 40.856 0.102 6.47 4.57 12.26
4/6/2021 3:00:00 PM -99999.99 -179968 -99999.99 -99999.99 -99999.99 -99999.99
4/6/2021 3:15:00 PM -99999.99 -179968 -99999.99 -99999.99 -99999.99 -99999.99
4/6/2021 3:30:00 PM -99999.99 -179968 -99999.99 -99999.99 -99999.99 -99999.99
4/6/2021 3:45:00 PM -99999.99 -179968 -99999.99 -99999.99 -99999.99 -99999.99
4/6/2021 4:00:00 PM -99999.99 -179968 -99999.99 -99999.99 -99999.99 -99999.99
4/6/2021 4:15:00 PM -99999.99 -179968 -99999.99 -99999.99 -99999.99 -99999.99
4/6/2021 4:30:00 PM -99999.99 -179968 -99999.99 -99999.99 -99999.99 -99999.99
4/6/2021 4:45:00 PM -99999.99 -179968 -99999.99 -99999.99 -99999.99 -99999.99
4/6/2021 5:00:00 PM -99999.99 -179968 -99999.99 -99999.99 -99999.99 -99999.99
4/6/2021 5:15:00 PM -99999.99 -179968 -99999.99 -99999.99 -99999.99 -99999.99
4/6/2021 5:30:00 PM -99999.99 -179968 -99999.99 -99999.99 -99999.99 -99999.99
4/6/2021 5:45:00 PM -99999.99 -179968 -99999.99 -99999.99 -99999.99 -99999.99
4/6/2021 6:00:00 PM -99999.99 -179968 -99999.99 -99999.99 -99999.99 -99999.99
4/6/2021 6:15:00 PM -99999.99 -179968 -99999.99 -99999.99 -99999.99 -99999.99
4/6/2021 6:30:00 PM -99999.99 -179968 -99999.99 -99999.99 -99999.99 -99999.99
4/6/2021 6:45:00 PM -99999.99 -179968 -99999.99 -99999.99 -99999.99 -99999.99
4/6/2021 7:00:00 PM -99999.99 -179968 -99999.99 -99999.99 -99999.99 -99999.99
4/6/2021 7:15:00 PM -99999.99 -179968 -99999.99 -99999.99 -99999.99 -99999.99
4/6/2021 7:30:00 PM -99999.99 -179968 -99999.99 -99999.99 -99999.99 -99999.99
4/6/2021 7:45:00 PM -99999.99 -179968 -99999.99 -99999.99 -99999.99 -99999.99
4/6/2021 8:00:00 PM -99999.99 -179968 -99999.99 -99999.99 -99999.99 -99999.99
4/6/2021 8:15:00 PM -99999.99 -179968 -99999.99 -99999.99 -99999.99 -99999.99
4/6/2021 8:30:00 PM -99999.99 -179968 -99999.99 -99999.99 -99999.99 -99999.99
4/6/2021 8:45:00 PM -99999.99 -179968 -99999.99 -99999.99 -99999.99 -99999.99
4/6/2021 9:00:00 PM -99999.99 -179968 -99999.99 -99999.99 -99999.99 -99999.99
4/6/2021 9:15:00 PM -99999.99 -179968 -99999.99 -99999.99 -99999.99 -99999.99
4/6/2021 9:30:00 PM -99999.99 -179968 -99999.99 -99999.99 -99999.99 -99999.99
4/6/2021 9:45:00 PM -99999.99 -179968 -99999.99 -99999.99 -99999.99 -99999.99
4/6/2021 10:00:00 PM -99999.99 -179968 -99999.99 -99999.99 -99999.99 -99999.99
4/6/2021 10:15:00 PM -99999.99 -179968 -99999.99 -99999.99 -99999.99 -99999.99
4/6/2021 10:30:00 PM -99999.99 -179968 -99999.99 -99999.99 -99999.99 -99999.99
4/6/2021 10:45:00 PM -99999.99 -179968 -99999.99 -99999.99 -99999.99 -99999.99
4/6/2021 11:00:00 PM -99999.99 -179968 -99999.99 -99999.99 -99999.99 -99999.99
4/6/2021 11:15:00 PM -99999.99 -179968 -99999.99 -99999.99 -99999.99 -99999.99
4/6/2021 11:30:00 PM -99999.99 -179968 -99999.99 -99999.99 -99999.99 -99999.99
4/6/2021 11:45:00 PM -99999.99 -179968 -99999.99 -99999.99 -99999.99 -99999.99
4/7/2021 12:00:00 AM -99999.99 -179968 -99999.99 -99999.99 -99999.99 -99999.99
4/7/2021 12:15:00 AM -99999.99 -179968 -99999.99 -99999.99 -99999.99 -99999.99
4/7/2021 12:30:00 AM -99999.99 -179968 -99999.99 -99999.99 -99999.99 -99999.99
4/7/2021 12:45:00 AM -99999.99 -179968 -99999.99 -99999.99 -99999.99 -99999.99
4/7/2021 1:00:00 AM -99999.99 -179968 -99999.99 -99999.99 -99999.99 -99999.99
4/7/2021 1:15:00 AM -99999.99 -179968 -99999.99 -99999.99 -99999.99 -99999.99
4/7/2021 1:30:00 AM -99999.99 -179968 -99999.99 -99999.99 -99999.99 -99999.99
4/7/2021 1:45:00 AM -99999.99 -179968 -99999.99 -99999.99 -99999.99 -99999.99
4/7/2021 2:00:00 AM -99999.99 -179968 -99999.99 -99999.99 -99999.99 -99999.99
4/7/2021 2:15:00 AM -99999.99 -179968 -99999.99 -99999.99 -99999.99 -99999.99
4/7/2021 2:30:00 AM -99999.99 -179968 -99999.99 -99999.99 -99999.99 -99999.99
4/7/2021 2:45:00 AM -99999.99 -179968 -99999.99 -99999.99 -99999.99 -99999.99
4/7/2021 3:00:00 AM -99999.99 -179968 -99999.99 -99999.99 -99999.99 -99999.99
4/7/2021 3:15:00 AM -99999.99 -179968 -99999.99 -99999.99 -99999.99 -99999.99
4/7/2021 3:30:00 AM -99999.99 -179968 -99999.99 -99999.99 -99999.99 -99999.99
4/7/2021 3:45:00 AM -99999.99 -179968 -99999.99 -99999.99 -99999.99 -99999.99
4/7/2021 4:00:00 AM -99999.99 -179968 -99999.99 -99999.99 -99999.99 -99999.99
4/7/2021 4:15:00 AM -99999.99 -179968 -99999.99 -99999.99 -99999.99 -99999.99
4/7/2021 4:30:00 AM -99999.99 -179968 -99999.99 -99999.99 -99999.99 -99999.99
4/7/2021 4:45:00 AM -99999.99 -179968 -99999.99 -99999.99 -99999.99 -99999.99
4/7/2021 5:00:00 AM -99999.99 -179968 -99999.99 -99999.99 -99999.99 -99999.99
4/7/2021 5:15:00 AM -99999.99 -179968 -99999.99 -99999.99 -99999.99 -99999.99
4/7/2021 5:30:00 AM -99999.99 -179968 -99999.99 -99999.99 -99999.99 -99999.99
4/7/2021 5:45:00 AM -99999.99 -179968 -99999.99 -99999.99 -99999.99 -99999.99
4/7/2021 6:00:00 AM -99999.99 -179968 -99999.99 -99999.99 -99999.99 -99999.99
4/7/2021 6:15:00 AM -99999.99 -179968 -99999.99 -99999.99 -99999.99 -99999.99
4/7/2021 6:30:00 AM -99999.99 -179968 -99999.99 -99999.99 -99999.99 -99999.99
4/7/2021 6:45:00 AM -99999.99 -179968 -99999.99 -99999.99 -99999.99 -99999.99
4/7/2021 7:00:00 AM -99999.99 -179968 -99999.99 -99999.99 -99999.99 -99999.99
4/7/2021 7:15:00 AM -99999.99 -179968 -99999.99 -99999.99 -99999.99 -99999.99
4/7/2021 7:30:00 AM -99999.99 -179968 -99999.99 -99999.99 -99999.99 -99999.99
4/7/2021 7:45:00 AM -99999.99 -179968 -99999.99 -99999.99 -99999.99 -99999.99
4/7/2021 8:00:00 AM -99999.99 -179968 -99999.99 -99999.99 -99999.99 -99999.99
4/7/2021 8:15:00 AM -99999.99 -179968 -99999.99 -99999.99 -99999.99 -99999.99
4/7/2021 8:30:00 AM -99999.99 -179968 -99999.99 -99999.99 -99999.99 -99999.99
4/7/2021 8:45:00 AM -99999.99 -179968 -99999.99 -99999.99 -99999.99 -99999.99
4/7/2021 9:00:00 AM -99999.99 -179968 -99999.99 -99999.99 -99999.99 -99999.99
4/7/2021 9:15:00 AM -99999.99 -179968 -99999.99 -99999.99 -99999.99 -99999.99
4/7/2021 9:30:00 AM -99999.99 -179968 -99999.99 -99999.99 -99999.99 -99999.99
4/7/2021 9:45:00 AM 8.33 46.994 0.089 6.43 6.4 11.15
4/7/2021 10:00:00 AM 8.53 47.354 0.088 6.43 6.97 11.1
4/7/2021 10:15:00 AM 8.73 47.714 0.088 6.44 6.73 11.04
4/7/2021 10:30:00 AM 8.95 48.11 0.088 6.44 6.64 10.98
4/7/2021 10:45:00 AM 9.18 48.524 0.088 6.44 6.42 10.92
4/7/2021 11:00:00 AM 9.4 48.92 0.088 6.44 6.26 10.86
4/7/2021 11:45:00 AM 9.96 49.928 0.088 6.45 6.43 10.71
4/7/2021 12:00:00 PM 10.11 50.198 0.088 6.45 6.41 10.67
4/7/2021 12:15:00 PM 10.24 50.432 0.088 6.45 6.07 10.63
4/7/2021 12:30:00 PM 10.37 50.666 0.088 6.45 6.17 10.6
4/7/2021 12:45:00 PM 10.47 50.846 0.088 6.45 6.28 10.58
4/7/2021 1:00:00 PM 10.44 50.792 0.088 6.45 6.11 10.58
4/7/2021 1:15:00 PM 10.44 50.792 0.088 6.45 6.01 10.57
4/7/2021 1:30:00 PM 10.44 50.792 0.088 6.45 6.34 10.57
4/7/2021 1:45:00 PM 10.34 50.612 0.088 6.45 6.81 10.59
4/7/2021 2:00:00 PM 10.43 50.774 0.088 6.45 6.41 10.58
4/7/2021 2:15:00 PM 10.5 50.9 0.088 6.46 6.14 10.56
4/7/2021 2:30:00 PM 10.48 50.864 0.088 6.45 6.89 10.55
4/7/2021 2:45:00 PM 10.55 50.99 0.088 6.45 6.34 10.54
4/7/2021 3:00:00 PM 10.58 51.044 0.088 6.46 6.39 10.52
4/7/2021 3:15:00 PM 10.5 50.9 0.088 6.45 6.41 10.53
4/7/2021 3:30:00 PM 10.44 50.792 0.088 6.45 6.42 10.55
4/7/2021 3:45:00 PM 10.38 50.684 0.088 6.45 6.38 10.57
4/7/2021 4:00:00 PM 10.31 50.558 0.088 6.45 6.83 10.59
4/7/2021 4:15:00 PM 10.29 50.522 0.088 6.45 6.96 10.6
4/7/2021 4:30:00 PM 10.28 50.504 0.088 6.45 6.52 10.6
4/7/2021 4:45:00 PM 10.26 50.468 0.088 6.45 6.55 10.6
4/7/2021 5:00:00 PM 10.26 50.468 0.088 6.45 6.57 10.6
4/7/2021 5:15:00 PM 10.22 50.396 0.088 6.44 6.92 10.6
4/7/2021 5:30:00 PM 10.16 50.288 0.089 6.44 6.7 10.62
4/7/2021 5:45:00 PM 10.1 50.18 0.089 6.43 7.1 10.63
4/7/2021 6:00:00 PM 10.03 50.054 0.089 6.43 6.66 10.65
4/7/2021 6:15:00 PM 9.95 49.91 0.089 6.43 6.66 10.67
4/7/2021 6:30:00 PM 9.87 49.766 0.089 6.42 6.84 10.69
4/7/2021 6:45:00 PM 9.8 49.64 0.089 6.42 7 10.71
4/7/2021 7:00:00 PM 9.72 49.496 0.089 6.42 6.63 10.72
4/7/2021 7:15:00 PM 9.65 49.37 0.089 6.42 6.71 10.74
4/7/2021 7:30:00 PM 9.59 49.262 0.089 6.42 6.88 10.75
4/7/2021 7:45:00 PM 9.53 49.154 0.089 6.41 7.1 10.78
4/7/2021 8:00:00 PM 9.49 49.082 0.089 6.42 6.66 10.79
4/7/2021 8:15:00 PM 9.43 48.974 0.089 6.41 6.46 10.81
4/7/2021 8:30:00 PM 9.38 48.884 0.089 6.41 6.75 10.82
4/7/2021 8:45:00 PM 9.34 48.812 0.089 6.41 6.75 10.84
4/7/2021 9:00:00 PM 9.29 48.722 0.089 6.41 6.75 10.85
4/7/2021 9:15:00 PM 9.25 48.65 0.089 6.4 6.75 10.86

These are provisional data and have not been subject to a quality assurance process, but rather are the raw data reported by the instrument.
H: value is above sensor operating range
L: value is below sensor operating range
Offline: station is not reporting data
NC: parameter is not collected at site

Data Availability & Limitations

Uncertainty and potential for error can be associated with environmental monitoring data. Provisional data have not been subject to a quality assurance process, but rather are the raw data reported by the instrument. Data users are cautioned to consider carefully the provisional nature of the information before using it for decisions that concern personal or public safety or the conduct of business that involves substantial monetary or operational consequences.

Approved data are currently available by request by emailing: srbc@srbc.net. Approved data have been subject to a quality assurance process to correct for equipment or fouling drift. Data recorded during equipment malfunctions have been removed.

View Historical Stations that have been discontinued.